Black Star — 9HA2911 — position and weather

sailwx.info

Track history (hours):
 
Tides and Currents Weather Stations Pressure Air Temp Water Temp Dewpoint Dewpoint Depression Visibility Wind Speed Wind Dir Waves Ship Positions

Black Star

Last reported at 2018-Feb-20 02:20 UTC. Time now 2018-Feb-20 07:58 UTC.
Position N 52°11' E 002°44'.

Length 129 m; draft 5.6 m.

Type: Ship (hazmat cat B). MMSI: 256714000.

Date/timePositionNaut miles runAvg speedWind from/ knotsBaromVisibWave heightAir tempDewpointWater temp
2018-Feb-20 02:20N 52°11' E 002°44'513.3
2018-Feb-20 01:58N 52°06' E 002°40'712.0
2018-Feb-20 01:23N 51°59' E 002°38'513.1
2018-Feb-20 01:00N 51°57' E 002°45'1713.1
2018-Feb-19 23:42N 51°49' E 003°09'312.2
2018-Feb-19 23:29N 51°47' E 003°12'611.9
2018-Feb-19 23:00N 51°42' E 003°17'612.2
2018-Feb-19 22:30N 51°37' E 003°22'611.6
2018-Feb-19 22:00N 51°31' E 003°26'612.0
2018-Feb-19 21:30N 51°27' E 003°32'510.0
2018-Feb-19 21:00N 51°26' E 003°40'815.7
2018-Feb-19 20:30N 51°21' E 003°49'815.9
2018-Feb-19 20:00N 51°26' E 003°59'713.8
2018-Feb-19 19:30N 51°22' E 004°08'510.9
2018-Feb-19 19:01N 51°20' E 004°16'510.8
2018-Feb-19 18:30N 51°15' E 004°19'4 7.1
2018-Feb-19 18:00N 51°12' E 004°22'5 9.2
2018-Feb-19 17:30N 51°08' E 004°19'1 2.4
2018-Feb-19 17:00N 51°07' E 004°18'1 2.0
2018-Feb-19 16:30N 51°06' E 004°19'2 0.1
2018-Feb-18 19:20N 51°05' E 004°21'0 0.3
2018-Feb-18 18:59N 51°05' E 004°21'1 2.4
2018-Feb-18 18:30N 51°06' E 004°19'1 2.6
2018-Feb-18 18:00N 51°07' E 004°18'1 1.1
2018-Feb-18 17:31N 51°08' E 004°19'3 5.3
2018-Feb-18 17:00N 51°10' E 004°20'4 8.6
2018-Feb-18 16:31N 51°14' E 004°24'3 6.9
2018-Feb-18 16:01N 51°15' E 004°19'4 7.0
2018-Feb-18 15:30N 51°18' E 004°16'612.2
2018-Feb-18 15:01N 51°24' E 004°12'612.6
2018-Feb-18 14:31N 51°24' E 004°02'4 7.5
2018-Feb-18 14:00N 51°23' E 003°56'713.8
2018-Feb-18 13:30N 51°22' E 003°45'612.1
2018-Feb-18 13:00N 51°26' E 003°38'611.2
2018-Feb-18 12:30N 51°25' E 003°30'613.1
2018-Feb-18 12:00N 51°24' E 003°19'612.7
2018-Feb-18 11:31N 51°24' E 003°09'611.8
2018-Feb-18 11:01N 51°24' E 002°60'510.9
2018-Feb-18 10:31N 51°22' E 002°51'610.8
2018-Feb-18 09:59N 51°22' E 002°42'3 6.7
2018-Feb-18 09:30N 51°22' E 002°37'2 4.3
2018-Feb-18 08:58N 51°20' E 002°35'0 0.0
2018-Feb-18 08:28N 51°20' E 002°35'0 0.0
2018-Feb-18 07:58N 51°20' E 002°35'0 0.1
2018-Feb-18 07:28N 51°20' E 002°35'0 0.1
2018-Feb-18 06:58N 51°20' E 002°35'2 4.3
2018-Feb-18 06:30N 51°22' E 002°34'4 8.9
2018-Feb-18 06:00N 51°21' E 002°27'611.2
2018-Feb-18 05:30N 51°19' E 002°18'3 6.6
2018-Feb-18 05:00N 51°17' E 002°14'4 7.4
2018-Feb-18 04:30N 51°15' E 002°09'4 7.5
2018-Feb-18 04:00N 51°13' E 002°04'4 7.3
2018-Feb-18 03:30N 51°11' E 001°59'4 7.3
2018-Feb-18 03:00N 51°10' E 001°54'4 7.7
2018-Feb-18 02:30N 51°07' E 001°48'4 7.8
2018-Feb-18 02:00N 51°05' E 001°44'5 9.2
2018-Feb-18 01:30N 51°02' E 001°39'714.2
2018-Feb-18 01:01N 50°57' E 001°31'814.8
2018-Feb-18 00:30N 50°50' E 001°26'814.5
2018-Feb-17 23:59N 50°43' E 001°22'2913.8
2018-Feb-17 21:51N 50°27' E 000°44'814.6
2018-Feb-17 21:18N 50°24' E 000°32'514.5
2018-Feb-17 20:58N 50°23' E 000°24'714.3
2018-Feb-17 20:30N 50°21' E 000°15'713.9
2018-Feb-17 20:00N 50°19' E 000°04'713.4
2018-Feb-17 19:30N 50°17' W 000°06'713.0
2018-Feb-17 19:00N 50°16' W 000°16'612.3
2018-Feb-17 18:30N 50°15' W 000°25'1011.8
2018-Feb-17 17:41N 50°12' W 000°40'311.2
2018-Feb-17 17:26N 50°12' W 000°44'510.8
2018-Feb-17 16:58N 50°10' W 000°52'510.3
2018-Feb-17 16:28N 50°09' W 000°60'5 9.8
2018-Feb-17 16:00N 50°08' W 001°07'5 9.5
2018-Feb-17 15:30N 50°07' W 001°14'5 9.3
2018-Feb-17 14:59N 50°05' W 001°21'4 9.1
2018-Feb-17 14:30N 50°04' W 001°28'5 9.4
2018-Feb-17 14:00N 50°03' W 001°35'5 9.8
2018-Feb-17 13:30N 50°01' W 001°42'510.5
2018-Feb-17 13:00N 50°00' W 001°50'611.4
2018-Feb-17 12:30N 49°59' W 001°58'612.1
2018-Feb-17 12:00N 49°57' W 002°07'1013.2
2018-Feb-17 11:13N 49°55' W 002°23'713.7
2018-Feb-17 10:43N 49°53' W 002°34'413.7
2018-Feb-17 10:26N 49°52' W 002°39'613.9
2018-Feb-17 10:00N 49°50' W 002°48'713.9
2018-Feb-17 09:30N 49°48' W 002°58'714.0
2018-Feb-17 09:00N 49°45' W 003°08'714.0
2018-Feb-17 08:30N 49°41' W 003°17'6914.2
2018-Feb-17 03:38N 49°07' W 004°49'513.9
2018-Feb-17 03:15N 49°04' W 004°56'1013.6
2018-Feb-17 02:31N 48°59' W 005°09'213.4
2018-Feb-17 02:24N 48°58' W 005°11'513.3
2018-Feb-17 02:00N 48°55' W 005°18'612.9
2018-Feb-17 01:30N 48°52' W 005°27'612.6
2018-Feb-17 01:00N 48°49' W 005°35'712.1
2018-Feb-17 00:27N 48°44' W 005°42'512.1
2018-Feb-16 23:59N 48°39' W 005°46'58211.6
2018-Feb-14 22:02N 39°26' W 009°58'011.7
2018-Feb-14 22:00N 39°26' W 009°58'612.0
2018-Feb-14 21:30N 39°20' W 009°58'611.9
2018-Feb-14 21:00N 39°14' W 009°58'611.6
2018-Feb-14 20:30N 39°08' W 009°58'611.5
2018-Feb-14 20:00N 39°03' W 009°58'611.5
2018-Feb-14 19:30N 38°57' W 009°57'611.3
2018-Feb-14 19:00N 38°51' W 009°57'611.4
2018-Feb-14 18:30N 38°45' W 009°57'611.3
2018-Feb-14 18:00N 38°40' W 009°56'611.3
2018-Feb-14 17:30N 38°34' W 009°56'611.7
2018-Feb-14 17:00N 38°28' W 009°55'611.8
2018-Feb-14 16:29N 38°22' W 009°55'711.9
2018-Feb-14 15:55N 38°16' W 009°54'  
Track history (hours):
 
Tides and Currents Weather Stations Pressure Air Temp Water Temp Dewpoint Dewpoint Depression Visibility Wind Speed Wind Dir Waves Ship Positions

Black Star

Last reported at 2018-Feb-20 02:20 UTC. Time now 2018-Feb-20 07:58 UTC.
Position N 52°11' E 002°44'.

Length 129 m; draft 5.6 m.

Type: Ship (hazmat cat B). MMSI: 256714000.

Date/timePositionNaut miles runAvg speedWind from/ knotsBaromVisibWave heightAir tempDewpointWater temp
2018-Feb-20 02:20N 52°11' E 002°44'513.3
2018-Feb-20 01:58N 52°06' E 002°40'712.0
2018-Feb-20 01:23N 51°59' E 002°38'513.1
2018-Feb-20 01:00N 51°57' E 002°45'1713.1
2018-Feb-19 23:42N 51°49' E 003°09'312.2
2018-Feb-19 23:29N 51°47' E 003°12'611.9
2018-Feb-19 23:00N 51°42' E 003°17'612.2
2018-Feb-19 22:30N 51°37' E 003°22'611.6
2018-Feb-19 22:00N 51°31' E 003°26'612.0
2018-Feb-19 21:30N 51°27' E 003°32'510.0
2018-Feb-19 21:00N 51°26' E 003°40'815.7
2018-Feb-19 20:30N 51°21' E 003°49'815.9
2018-Feb-19 20:00N 51°26' E 003°59'713.8
2018-Feb-19 19:30N 51°22' E 004°08'510.9
2018-Feb-19 19:01N 51°20' E 004°16'510.8
2018-Feb-19 18:30N 51°15' E 004°19'4 7.1
2018-Feb-19 18:00N 51°12' E 004°22'5 9.2
2018-Feb-19 17:30N 51°08' E 004°19'1 2.4
2018-Feb-19 17:00N 51°07' E 004°18'1 2.0
2018-Feb-19 16:30N 51°06' E 004°19'2 0.1
2018-Feb-18 19:20N 51°05' E 004°21'0 0.3
2018-Feb-18 18:59N 51°05' E 004°21'1 2.4
2018-Feb-18 18:30N 51°06' E 004°19'1 2.6
2018-Feb-18 18:00N 51°07' E 004°18'1 1.1
2018-Feb-18 17:31N 51°08' E 004°19'3 5.3
2018-Feb-18 17:00N 51°10' E 004°20'4 8.6
2018-Feb-18 16:31N 51°14' E 004°24'3 6.9
2018-Feb-18 16:01N 51°15' E 004°19'4 7.0
2018-Feb-18 15:30N 51°18' E 004°16'612.2
2018-Feb-18 15:01N 51°24' E 004°12'612.6
2018-Feb-18 14:31N 51°24' E 004°02'4 7.5
2018-Feb-18 14:00N 51°23' E 003°56'713.8
2018-Feb-18 13:30N 51°22' E 003°45'612.1
2018-Feb-18 13:00N 51°26' E 003°38'611.2
2018-Feb-18 12:30N 51°25' E 003°30'613.1
2018-Feb-18 12:00N 51°24' E 003°19'612.7
2018-Feb-18 11:31N 51°24' E 003°09'611.8
2018-Feb-18 11:01N 51°24' E 002°60'510.9
2018-Feb-18 10:31N 51°22' E 002°51'610.8
2018-Feb-18 09:59N 51°22' E 002°42'3 6.7
2018-Feb-18 09:30N 51°22' E 002°37'2 4.3
2018-Feb-18 08:58N 51°20' E 002°35'0 0.0
2018-Feb-18 08:28N 51°20' E 002°35'0 0.0
2018-Feb-18 07:58N 51°20' E 002°35'0 0.1
2018-Feb-18 07:28N 51°20' E 002°35'0 0.1
2018-Feb-18 06:58N 51°20' E 002°35'2 4.3
2018-Feb-18 06:30N 51°22' E 002°34'4 8.9
2018-Feb-18 06:00N 51°21' E 002°27'611.2
2018-Feb-18 05:30N 51°19' E 002°18'3 6.6
2018-Feb-18 05:00N 51°17' E 002°14'4 7.4
2018-Feb-18 04:30N 51°15' E 002°09'4 7.5
2018-Feb-18 04:00N 51°13' E 002°04'4 7.3
2018-Feb-18 03:30N 51°11' E 001°59'4 7.3
2018-Feb-18 03:00N 51°10' E 001°54'4 7.7
2018-Feb-18 02:30N 51°07' E 001°48'4 7.8
2018-Feb-18 02:00N 51°05' E 001°44'5 9.2
2018-Feb-18 01:30N 51°02' E 001°39'714.2
2018-Feb-18 01:01N 50°57' E 001°31'814.8
2018-Feb-18 00:30N 50°50' E 001°26'814.5
2018-Feb-17 23:59N 50°43' E 001°22'2913.8
2018-Feb-17 21:51N 50°27' E 000°44'814.6
2018-Feb-17 21:18N 50°24' E 000°32'514.5
2018-Feb-17 20:58N 50°23' E 000°24'714.3
2018-Feb-17 20:30N 50°21' E 000°15'713.9
2018-Feb-17 20:00N 50°19' E 000°04'713.4
2018-Feb-17 19:30N 50°17' W 000°06'713.0
2018-Feb-17 19:00N 50°16' W 000°16'612.3
2018-Feb-17 18:30N 50°15' W 000°25'1011.8
2018-Feb-17 17:41N 50°12' W 000°40'311.2
2018-Feb-17 17:26N 50°12' W 000°44'510.8
2018-Feb-17 16:58N 50°10' W 000°52'510.3
2018-Feb-17 16:28N 50°09' W 000°60'5 9.8
2018-Feb-17 16:00N 50°08' W 001°07'5 9.5
2018-Feb-17 15:30N 50°07' W 001°14'5 9.3
2018-Feb-17 14:59N 50°05' W 001°21'4 9.1
2018-Feb-17 14:30N 50°04' W 001°28'5 9.4
2018-Feb-17 14:00N 50°03' W 001°35'5 9.8
2018-Feb-17 13:30N 50°01' W 001°42'510.5
2018-Feb-17 13:00N 50°00' W 001°50'611.4
2018-Feb-17 12:30N 49°59' W 001°58'612.1
2018-Feb-17 12:00N 49°57' W 002°07'1013.2
2018-Feb-17 11:13N 49°55' W 002°23'713.7
2018-Feb-17 10:43N 49°53' W 002°34'413.7
2018-Feb-17 10:26N 49°52' W 002°39'613.9
2018-Feb-17 10:00N 49°50' W 002°48'713.9
2018-Feb-17 09:30N 49°48' W 002°58'714.0
2018-Feb-17 09:00N 49°45' W 003°08'714.0
2018-Feb-17 08:30N 49°41' W 003°17'6914.2
2018-Feb-17 03:38N 49°07' W 004°49'513.9
2018-Feb-17 03:15N 49°04' W 004°56'1013.6
2018-Feb-17 02:31N 48°59' W 005°09'213.4
2018-Feb-17 02:24N 48°58' W 005°11'513.3
2018-Feb-17 02:00N 48°55' W 005°18'612.9
2018-Feb-17 01:30N 48°52' W 005°27'612.6
2018-Feb-17 01:00N 48°49' W 005°35'712.1
2018-Feb-17 00:27N 48°44' W 005°42'512.1
2018-Feb-16 23:59N 48°39' W 005°46'58211.6
2018-Feb-14 22:02N 39°26' W 009°58'011.7
2018-Feb-14 22:00N 39°26' W 009°58'612.0
2018-Feb-14 21:30N 39°20' W 009°58'611.9
2018-Feb-14 21:00N 39°14' W 009°58'611.6
2018-Feb-14 20:30N 39°08' W 009°58'611.5
2018-Feb-14 20:00N 39°03' W 009°58'611.5
2018-Feb-14 19:30N 38°57' W 009°57'611.3
2018-Feb-14 19:00N 38°51' W 009°57'611.4
2018-Feb-14 18:30N 38°45' W 009°57'611.3
2018-Feb-14 18:00N 38°40' W 009°56'611.3
2018-Feb-14 17:30N 38°34' W 009°56'611.7
2018-Feb-14 17:00N 38°28' W 009°55'611.8
2018-Feb-14 16:29N 38°22' W 009°55'711.9
2018-Feb-14 15:55N 38°16' W 009°54'  

Dump ship's entire track history